Sunday, October 21, 2018, 1:55 AM EDT
Back to Local

KHUL, Houlton Int'l Airport

Location: Houlton, ME, United States Lat: 46.117
Local Time: 1:55 AM EDT ( 5:55 GMT) Lon: -67.8
Time Zone: US/Eastern Elev: 492 ft

Show me the last for .
Show Decoded

2018-10-21 00:53 METAR KHUL 210453Z AUTO 00000KT 10SM CLR M01/M02 A2952 RMK AO2 SLP000 T10061017
                 401561017 =
2018-10-20 23:53 METAR KHUL 210353Z AUTO 00000KT 10SM CLR 04/01 A2951 RMK AO2 SLP995 T00440006 =
2018-10-20 22:53 METAR KHUL 210253Z AUTO 27003KT 10SM CLR 06/01 A2950 RMK AO2 SLP993 T00610006
                 51014 =
2018-10-20 21:53 METAR KHUL 210153Z AUTO 30004KT 10SM CLR 08/00 A2949 RMK AO2 SLP990 T00780000 =
2018-10-20 20:53 METAR KHUL 210053Z AUTO 33004KT 10SM CLR 09/M01 A2947 RMK AO2 SLP981 T00891011 =
2018-10-20 19:53 METAR KHUL 202353Z AUTO 23004KT 10SM FEW085 09/01 A2946 RMK AO2 SLP977 T00890011
                 10156 20044 51023 =
2018-10-20 18:53 METAR KHUL 202253Z AUTO 00000KT 10SM CLR 07/03 A2944 RMK AO2 SLP973 T00670033 =
2018-10-20 17:53 METAR KHUL 202153Z AUTO 20004KT 10SM CLR 11/03 A2940 RMK AO2 SLP959 T01110033 =
2018-10-20 16:53 METAR KHUL 202053Z AUTO 20006KT 10SM CLR 14/04 A2939 RMK AO2 SLP954 T01390044
                 55002 =
2018-10-20 15:53 METAR KHUL 201953Z AUTO 21010G19KT 10SM CLR 15/05 A2939 RMK AO2 SLP953 T01500050
                 =
2018-10-20 14:53 METAR KHUL 201853Z AUTO 22013G23KT 10SM BKN048 BKN060 16/06 A2939 RMK AO2 SLP955
                 T01560056 =
2018-10-20 13:53 METAR KHUL 201753Z AUTO 21011G20KT 10SM BKN055 14/06 A2940 RMK AO2 SLP956 60000
                 T01440061 10144 20094 56019 =
2018-10-20 12:53 METAR KHUL 201653Z AUTO 21015G22KT 10SM SCT055 BKN095 BKN110 13/07 A2941 RMK AO2
                 RAE08 SLP961 P0000 T01330072 =
2018-10-20 11:53 METAR KHUL 201553Z AUTO 21008G20KT 7SM -RA FEW030 BKN055 OVC065 12/07 A2944 RMK
                 AO2 PK WND 20026/1528 RAB51 SLP971 P0000 T01170067 =
2018-10-20 10:53 METAR KHUL 201453Z AUTO 21012G23KT 10SM SCT027 BKN033 OVC080 12/07 A2945 RMK AO2
                 PK WND 23030/1441 SLP977 60000 T01170067 56020 =
2018-10-20 10:40 METAR KHUL 201440Z AUTO 20011G25KT 10SM BKN029 BKN035 OVC075 12/07 A2945 RMK AO2
                 T01170067 =
2018-10-20 09:53 METAR KHUL 201353Z AUTO 20010G18KT 170V230 10SM BKN065 OVC075 11/06 A2947 RMK
                 AO2 RAE1259B18E48 SLP983 P0000 T01060061 =
2018-10-20 08:53 METAR KHUL 201253Z AUTO 20007G15KT 10SM -RA SCT050 OVC065 10/06 A2949 RMK AO2
                 RAB37 SLP988 P0000 T01000056 =
2018-10-20 07:53 METAR KHUL 201153Z AUTO 20008G16KT 10SM OVC100 09/05 A2951 RMK AO2 SLP997
                 T00940050 10094 20067 55010 =
2018-10-20 06:53 METAR KHUL 201053Z AUTO 20010G15KT 10SM OVC100 09/06 A2951 RMK AO2 SLP996
                 T00890056 =
2018-10-20 05:53 METAR KHUL 200953Z AUTO 20008KT 10SM OVC110 09/07 A2952 RMK AO2 SLP001 T00890067
                 =
2018-10-20 04:53 METAR KHUL 200853Z AUTO 17009G17KT 10SM BKN110 08/07 A2954 RMK AO2 PRESFR SLP007
                 T00830072 56044 =
2018-10-20 03:53 METAR KHUL 200753Z AUTO VRB05KT 10SM FEW120 08/07 A2956 RMK AO2 PRESFR SLP014
                 T00780067 =
2018-10-20 02:53 METAR KHUL 200653Z AUTO VRB04KT 10SM CLR 07/06 A2961 RMK AO2 SLP033 T00720056 =

Support USWX by starting your Amazon purchase here.